マカオ の空港の天気 - METARとTAF

マカオ国際空港 ( VMMC / MFM ) - マカオ タイパ島
飛行場実況気象(Metar)
観測時間06/26 19:30 CST (06/26 11:30 UTC)
風向・風速南南西 5m/s
視程10km以上
天気現象
少しの雲 雲底高度 460m
全天の4割程度の雲 雲底高度 910m
気温29℃
湿度84%
気圧1007hPa
METARVMMC 261130Z 21010KT 9999 FEW015 SCT030 29/26 Q1007 NOSIG
過去の天気等 Google飛行場航空写真 Wunderground天気予報

過去48時間のMETAR

飛行場予報(TAF)
データがありません